sensor_id;sensor_type;location;lat;lon;timestamp;temperature;humidity
18741;DHT22;9499;52.472;13.448;2023-04-25T00:01:26;9.40;1.00
18741;DHT22;9499;52.472;13.448;2023-04-25T00:03:52;9.40;1.00
18741;DHT22;9499;52.472;13.448;2023-04-25T00:06:20;9.40;1.00
18741;DHT22;9499;52.472;13.448;2023-04-25T00:08:48;9.40;1.00
18741;DHT22;9499;52.472;13.448;2023-04-25T00:11:14;9.40;1.00
18741;DHT22;9499;52.472;13.448;2023-04-25T00:13:41;9.30;1.00
18741;DHT22;9499;52.472;13.448;2023-04-25T00:16:07;9.30;1.00
18741;DHT22;9499;52.472;13.448;2023-04-25T00:18:34;9.30;1.00
18741;DHT22;9499;52.472;13.448;2023-04-25T00:21:01;9.30;1.00
18741;DHT22;9499;52.472;13.448;2023-04-25T00:23:29;9.30;1.00
18741;DHT22;9499;52.472;13.448;2023-04-25T00:25:56;9.20;1.00
18741;DHT22;9499;52.472;13.448;2023-04-25T00:28:22;9.20;1.00
18741;DHT22;9499;52.472;13.448;2023-04-25T00:30:49;9.20;1.00
18741;DHT22;9499;52.472;13.448;2023-04-25T00:33:15;9.20;1.00
18741;DHT22;9499;52.472;13.448;2023-04-25T00:35:42;9.20;1.00
18741;DHT22;9499;52.472;13.448;2023-04-25T00:38:08;9.20;1.00
18741;DHT22;9499;52.472;13.448;2023-04-25T00:40:36;9.20;1.00
18741;DHT22;9499;52.472;13.448;2023-04-25T00:43:04;9.20;1.00
18741;DHT22;9499;52.472;13.448;2023-04-25T00:45:30;9.20;1.00
18741;DHT22;9499;52.472;13.448;2023-04-25T00:47:57;9.20;1.00
18741;DHT22;9499;52.472;13.448;2023-04-25T00:50:24;9.20;1.00
18741;DHT22;9499;52.472;13.448;2023-04-25T00:52:51;9.20;1.00
18741;DHT22;9499;52.472;13.448;2023-04-25T00:55:18;9.20;1.00
18741;DHT22;9499;52.472;13.448;2023-04-25T00:57:46;9.20;1.00
18741;DHT22;9499;52.472;13.448;2023-04-25T01:00:14;9.20;1.00
18741;DHT22;9499;52.472;13.448;2023-04-25T01:02:41;9.30;1.00
18741;DHT22;9499;52.472;13.448;2023-04-25T01:05:08;9.20;1.00
18741;DHT22;9499;52.472;13.448;2023-04-25T01:07:35;9.30;1.00
18741;DHT22;9499;52.472;13.448;2023-04-25T01:10:02;9.30;1.00
18741;DHT22;9499;52.472;13.448;2023-04-25T01:12:29;9.20;1.00
18741;DHT22;9499;52.472;13.448;2023-04-25T01:14:57;9.20;1.00
18741;DHT22;9499;52.472;13.448;2023-04-25T01:17:24;9.20;1.00
18741;DHT22;9499;52.472;13.448;2023-04-25T01:19:50;9.20;1.00
18741;DHT22;9499;52.472;13.448;2023-04-25T01:22:18;9.20;1.00
18741;DHT22;9499;52.472;13.448;2023-04-25T01:24:46;9.20;1.00
18741;DHT22;9499;52.472;13.448;2023-04-25T01:27:13;9.20;1.00
18741;DHT22;9499;52.472;13.448;2023-04-25T01:29:40;9.10;1.00
18741;DHT22;9499;52.472;13.448;2023-04-25T01:32:07;9.20;1.00
18741;DHT22;9499;52.472;13.448;2023-04-25T01:34:34;9.20;1.00
18741;DHT22;9499;52.472;13.448;2023-04-25T01:37:01;9.20;1.00
18741;DHT22;9499;52.472;13.448;2023-04-25T01:39:29;9.20;1.00
18741;DHT22;9499;52.472;13.448;2023-04-25T01:41:56;9.20;1.00
18741;DHT22;9499;52.472;13.448;2023-04-25T01:44:23;9.20;1.00
18741;DHT22;9499;52.472;13.448;2023-04-25T01:46:49;9.20;1.00
18741;DHT22;9499;52.472;13.448;2023-04-25T01:49:16;9.20;1.00
18741;DHT22;9499;52.472;13.448;2023-04-25T01:51:42;9.20;1.00
18741;DHT22;9499;52.472;13.448;2023-04-25T01:54:10;9.20;1.00
18741;DHT22;9499;52.472;13.448;2023-04-25T01:56:39;9.20;1.00
18741;DHT22;9499;52.472;13.448;2023-04-25T01:59:06;9.20;1.00
18741;DHT22;9499;52.472;13.448;2023-04-25T02:01:32;9.20;1.00
18741;DHT22;9499;52.472;13.448;2023-04-25T02:03:59;9.20;1.00
18741;DHT22;9499;52.472;13.448;2023-04-25T02:06:25;9.20;1.00
18741;DHT22;9499;52.472;13.448;2023-04-25T02:08:52;9.20;1.00
18741;DHT22;9499;52.472;13.448;2023-04-25T02:11:18;9.20;1.00
18741;DHT22;9499;52.472;13.448;2023-04-25T02:13:46;9.10;1.00
18741;DHT22;9499;52.472;13.448;2023-04-25T02:16:13;9.20;1.00
18741;DHT22;9499;52.472;13.448;2023-04-25T02:18:39;9.10;1.00
18741;DHT22;9499;52.472;13.448;2023-04-25T02:21:06;9.10;1.00
18741;DHT22;9499;52.472;13.448;2023-04-25T02:23:32;9.20;1.00
18741;DHT22;9499;52.472;13.448;2023-04-25T02:25:59;9.10;1.00
18741;DHT22;9499;52.472;13.448;2023-04-25T02:28:25;9.20;1.00
18741;DHT22;9499;52.472;13.448;2023-04-25T02:30:53;9.20;1.00
18741;DHT22;9499;52.472;13.448;2023-04-25T02:33:20;9.10;1.00
18741;DHT22;9499;52.472;13.448;2023-04-25T02:35:47;9.20;1.00
18741;DHT22;9499;52.472;13.448;2023-04-25T02:38:13;9.10;1.00
18741;DHT22;9499;52.472;13.448;2023-04-25T02:40:40;9.10;1.00
18741;DHT22;9499;52.472;13.448;2023-04-25T02:43:07;9.10;1.00
18741;DHT22;9499;52.472;13.448;2023-04-25T02:45:33;9.10;1.00
18741;DHT22;9499;52.472;13.448;2023-04-25T02:48:02;9.10;1.00
18741;DHT22;9499;52.472;13.448;2023-04-25T02:50:28;9.10;1.00
18741;DHT22;9499;52.472;13.448;2023-04-25T02:52:55;9.10;1.00
18741;DHT22;9499;52.472;13.448;2023-04-25T02:55:21;9.10;1.00
18741;DHT22;9499;52.472;13.448;2023-04-25T02:57:48;9.10;1.00
18741;DHT22;9499;52.472;13.448;2023-04-25T03:00:14;9.10;1.00
18741;DHT22;9499;52.472;13.448;2023-04-25T03:02:41;9.00;1.00
18741;DHT22;9499;52.472;13.448;2023-04-25T03:05:09;9.00;1.00
18741;DHT22;9499;52.472;13.448;2023-04-25T03:07:35;9.00;1.00
18741;DHT22;9499;52.472;13.448;2023-04-25T03:10:02;9.00;1.00
18741;DHT22;9499;52.472;13.448;2023-04-25T03:12:28;9.00;1.00
18741;DHT22;9499;52.472;13.448;2023-04-25T03:14:55;9.00;1.00
18741;DHT22;9499;52.472;13.448;2023-04-25T03:17:21;9.00;1.00
18741;DHT22;9499;52.472;13.448;2023-04-25T03:19:48;9.10;1.00
18741;DHT22;9499;52.472;13.448;2023-04-25T03:22:16;9.10;1.00
18741;DHT22;9499;52.472;13.448;2023-04-25T03:24:42;9.10;1.00
18741;DHT22;9499;52.472;13.448;2023-04-25T03:27:09;9.10;1.00
18741;DHT22;9499;52.472;13.448;2023-04-25T03:29:35;9.10;1.00
18741;DHT22;9499;52.472;13.448;2023-04-25T03:32:02;9.00;1.00
18741;DHT22;9499;52.472;13.448;2023-04-25T03:34:28;9.00;1.00
18741;DHT22;9499;52.472;13.448;2023-04-25T03:36:55;9.00;1.00
18741;DHT22;9499;52.472;13.448;2023-04-25T03:39:23;9.00;1.00
18741;DHT22;9499;52.472;13.448;2023-04-25T03:41:49;9.00;1.00
18741;DHT22;9499;52.472;13.448;2023-04-25T03:44:16;9.00;18.20
18741;DHT22;9499;52.472;13.448;2023-04-25T03:46:42;8.90;32.80
18741;DHT22;9499;52.472;13.448;2023-04-25T03:49:09;8.90;52.10
18741;DHT22;9499;52.472;13.448;2023-04-25T03:51:35;8.90;45.00
18741;DHT22;9499;52.472;13.448;2023-04-25T03:54:02;8.90;56.80
18741;DHT22;9499;52.472;13.448;2023-04-25T03:56:30;8.90;99.90
18741;DHT22;9499;52.472;13.448;2023-04-25T03:58:57;8.90;99.90
18741;DHT22;9499;52.472;13.448;2023-04-25T04:01:23;8.90;99.90
18741;DHT22;9499;52.472;13.448;2023-04-25T04:03:50;8.90;99.90
18741;DHT22;9499;52.472;13.448;2023-04-25T04:06:17;8.90;99.90
18741;DHT22;9499;52.472;13.448;2023-04-25T04:08:44;8.90;99.90
18741;DHT22;9499;52.472;13.448;2023-04-25T04:11:10;8.90;99.90
18741;DHT22;9499;52.472;13.448;2023-04-25T04:13:38;8.90;99.90
18741;DHT22;9499;52.472;13.448;2023-04-25T04:16:05;8.80;99.90
18741;DHT22;9499;52.472;13.448;2023-04-25T04:18:31;8.90;99.90
18741;DHT22;9499;52.472;13.448;2023-04-25T04:20:59;8.80;99.90
18741;DHT22;9499;52.472;13.448;2023-04-25T04:23:25;8.80;99.90
18741;DHT22;9499;52.472;13.448;2023-04-25T04:25:53;8.80;99.90
18741;DHT22;9499;52.472;13.448;2023-04-25T04:28:20;8.80;99.90
18741;DHT22;9499;52.472;13.448;2023-04-25T04:30:48;8.80;99.90
18741;DHT22;9499;52.472;13.448;2023-04-25T04:33:16;8.90;99.90
18741;DHT22;9499;52.472;13.448;2023-04-25T04:35:44;8.80;99.90
18741;DHT22;9499;52.472;13.448;2023-04-25T04:38:10;8.80;99.90
18741;DHT22;9499;52.472;13.448;2023-04-25T04:40:37;8.80;99.90
18741;DHT22;9499;52.472;13.448;2023-04-25T04:43:04;8.80;99.90
18741;DHT22;9499;52.472;13.448;2023-04-25T04:45:31;8.80;99.90
18741;DHT22;9499;52.472;13.448;2023-04-25T04:47:58;8.90;99.90
18741;DHT22;9499;52.472;13.448;2023-04-25T04:50:25;8.90;99.90
18741;DHT22;9499;52.472;13.448;2023-04-25T04:52:52;8.90;99.90
18741;DHT22;9499;52.472;13.448;2023-04-25T04:55:20;9.00;99.90
18741;DHT22;9499;52.472;13.448;2023-04-25T04:57:47;9.00;99.90
18741;DHT22;9499;52.472;13.448;2023-04-25T05:00:14;9.00;99.90
18741;DHT22;9499;52.472;13.448;2023-04-25T05:02:41;8.90;99.90
18741;DHT22;9499;52.472;13.448;2023-04-25T05:05:09;9.00;99.90
18741;DHT22;9499;52.472;13.448;2023-04-25T05:07:35;9.00;99.90
18741;DHT22;9499;52.472;13.448;2023-04-25T05:10:02;9.00;99.90
18741;DHT22;9499;52.472;13.448;2023-04-25T05:12:28;8.90;99.90
18741;DHT22;9499;52.472;13.448;2023-04-25T05:14:55;8.90;99.90
18741;DHT22;9499;52.472;13.448;2023-04-25T05:17:22;8.90;99.90
18741;DHT22;9499;52.472;13.448;2023-04-25T05:19:48;9.00;99.90
18741;DHT22;9499;52.472;13.448;2023-04-25T05:22:16;8.90;99.90
18741;DHT22;9499;52.472;13.448;2023-04-25T05:24:43;9.00;99.90
18741;DHT22;9499;52.472;13.448;2023-04-25T05:27:09;9.00;99.90
18741;DHT22;9499;52.472;13.448;2023-04-25T05:29:36;9.00;99.90
18741;DHT22;9499;52.472;13.448;2023-04-25T05:32:02;9.00;99.90
18741;DHT22;9499;52.472;13.448;2023-04-25T05:34:29;9.00;99.90
18741;DHT22;9499;52.472;13.448;2023-04-25T05:36:55;9.00;99.90
18741;DHT22;9499;52.472;13.448;2023-04-25T05:39:23;9.00;99.90
18741;DHT22;9499;52.472;13.448;2023-04-25T05:41:49;9.00;99.90
18741;DHT22;9499;52.472;13.448;2023-04-25T05:44:16;8.90;99.90
18741;DHT22;9499;52.472;13.448;2023-04-25T05:46:43;9.00;99.90
18741;DHT22;9499;52.472;13.448;2023-04-25T05:49:09;9.00;99.90
18741;DHT22;9499;52.472;13.448;2023-04-25T05:51:36;9.00;99.90
18741;DHT22;9499;52.472;13.448;2023-04-25T05:54:02;9.00;99.90
18741;DHT22;9499;52.472;13.448;2023-04-25T05:56:30;9.00;99.90
18741;DHT22;9499;52.472;13.448;2023-04-25T05:58:57;9.00;99.90
18741;DHT22;9499;52.472;13.448;2023-04-25T06:01:23;9.00;99.90
18741;DHT22;9499;52.472;13.448;2023-04-25T06:03:50;9.00;99.90
18741;DHT22;9499;52.472;13.448;2023-04-25T06:06:17;8.90;1.00
18741;DHT22;9499;52.472;13.448;2023-04-25T06:08:44;9.00;1.00
18741;DHT22;9499;52.472;13.448;2023-04-25T06:11:11;9.00;1.00
18741;DHT22;9499;52.472;13.448;2023-04-25T06:13:39;9.00;1.00
18741;DHT22;9499;52.472;13.448;2023-04-25T06:16:06;9.00;1.00
18741;DHT22;9499;52.472;13.448;2023-04-25T06:18:32;9.00;1.00
18741;DHT22;9499;52.472;13.448;2023-04-25T06:20:59;9.00;1.00
18741;DHT22;9499;52.472;13.448;2023-04-25T06:23:25;9.00;1.00
18741;DHT22;9499;52.472;13.448;2023-04-25T06:25:52;8.90;1.00
18741;DHT22;9499;52.472;13.448;2023-04-25T06:28:18;8.90;1.00
18741;DHT22;9499;52.472;13.448;2023-04-25T06:30:48;8.90;1.00
18741;DHT22;9499;52.472;13.448;2023-04-25T06:33:15;9.00;1.00
18741;DHT22;9499;52.472;13.448;2023-04-25T06:35:41;9.00;1.00
18741;DHT22;9499;52.472;13.448;2023-04-25T06:38:08;9.10;1.00
18741;DHT22;9499;52.472;13.448;2023-04-25T06:40:34;9.10;1.00
18741;DHT22;9499;52.472;13.448;2023-04-25T06:43:01;9.00;1.00
18741;DHT22;9499;52.472;13.448;2023-04-25T06:45:27;9.00;1.00
18741;DHT22;9499;52.472;13.448;2023-04-25T06:47:55;9.00;1.00
18741;DHT22;9499;52.472;13.448;2023-04-25T06:50:22;9.00;1.00
18741;DHT22;9499;52.472;13.448;2023-04-25T06:52:48;9.00;1.00
18741;DHT22;9499;52.472;13.448;2023-04-25T06:55:15;9.00;1.00
18741;DHT22;9499;52.472;13.448;2023-04-25T06:57:42;9.10;1.00
18741;DHT22;9499;52.472;13.448;2023-04-25T07:00:09;9.00;1.00
18741;DHT22;9499;52.472;13.448;2023-04-25T07:02:36;9.00;1.00
18741;DHT22;9499;52.472;13.448;2023-04-25T07:05:04;9.10;1.00
18741;DHT22;9499;52.472;13.448;2023-04-25T07:07:31;9.00;1.00
18741;DHT22;9499;52.472;13.448;2023-04-25T07:09:58;9.00;1.00
18741;DHT22;9499;52.472;13.448;2023-04-25T07:12:24;9.00;1.00
18741;DHT22;9499;52.472;13.448;2023-04-25T07:14:51;8.90;1.00
18741;DHT22;9499;52.472;13.448;2023-04-25T07:17:17;9.00;1.00
18741;DHT22;9499;52.472;13.448;2023-04-25T07:19:44;9.00;1.00
18741;DHT22;9499;52.472;13.448;2023-04-25T07:22:12;9.00;1.00
18741;DHT22;9499;52.472;13.448;2023-04-25T07:24:38;9.00;1.00
18741;DHT22;9499;52.472;13.448;2023-04-25T07:27:05;8.90;1.00
18741;DHT22;9499;52.472;13.448;2023-04-25T07:29:31;8.90;1.00
18741;DHT22;9499;52.472;13.448;2023-04-25T07:32:01;8.90;1.00
18741;DHT22;9499;52.472;13.448;2023-04-25T07:34:27;8.80;1.00
18741;DHT22;9499;52.472;13.448;2023-04-25T07:36:55;8.70;1.00
18741;DHT22;9499;52.472;13.448;2023-04-25T07:39:23;8.70;1.00
18741;DHT22;9499;52.472;13.448;2023-04-25T07:41:49;8.60;1.00
18741;DHT22;9499;52.472;13.448;2023-04-25T07:44:16;8.60;1.00
18741;DHT22;9499;52.472;13.448;2023-04-25T07:46:42;8.60;1.00
18741;DHT22;9499;52.472;13.448;2023-04-25T07:49:09;8.60;1.00
18741;DHT22;9499;52.472;13.448;2023-04-25T07:51:36;8.70;1.00
18741;DHT22;9499;52.472;13.448;2023-04-25T07:54:02;8.70;1.00
18741;DHT22;9499;52.472;13.448;2023-04-25T07:56:31;8.70;1.00
18741;DHT22;9499;52.472;13.448;2023-04-25T07:58:58;8.80;1.00
18741;DHT22;9499;52.472;13.448;2023-04-25T08:01:25;8.90;1.00
18741;DHT22;9499;52.472;13.448;2023-04-25T08:03:52;8.90;1.00
18741;DHT22;9499;52.472;13.448;2023-04-25T08:06:18;9.00;1.00
18741;DHT22;9499;52.472;13.448;2023-04-25T08:08:45;9.00;1.00
18741;DHT22;9499;52.472;13.448;2023-04-25T08:11:12;8.90;1.00
18741;DHT22;9499;52.472;13.448;2023-04-25T08:13:40;8.80;1.00
18741;DHT22;9499;52.472;13.448;2023-04-25T08:16:06;8.80;1.00
18741;DHT22;9499;52.472;13.448;2023-04-25T08:18:33;8.80;1.00
18741;DHT22;9499;52.472;13.448;2023-04-25T08:20:59;8.90;99.90
18741;DHT22;9499;52.472;13.448;2023-04-25T08:23:26;8.90;99.90
18741;DHT22;9499;52.472;13.448;2023-04-25T08:25:53;8.90;1.00
18741;DHT22;9499;52.472;13.448;2023-04-25T08:28:19;8.90;1.00
18741;DHT22;9499;52.472;13.448;2023-04-25T08:30:47;8.90;96.40
18741;DHT22;9499;52.472;13.448;2023-04-25T08:33:14;9.00;99.90
18741;DHT22;9499;52.472;13.448;2023-04-25T08:35:40;9.20;99.90
18741;DHT22;9499;52.472;13.448;2023-04-25T08:38:07;9.40;1.00
18741;DHT22;9499;52.472;13.448;2023-04-25T08:40:38;9.50;99.90
18741;DHT22;9499;52.472;13.448;2023-04-25T08:43:06;9.50;99.90
18741;DHT22;9499;52.472;13.448;2023-04-25T08:45:38;9.60;1.00
18741;DHT22;9499;52.472;13.448;2023-04-25T08:48:11;9.70;94.50
18741;DHT22;9499;52.472;13.448;2023-04-25T08:50:39;9.50;98.00
18741;DHT22;9499;52.472;13.448;2023-04-25T08:53:08;9.40;99.90
18741;DHT22;9499;52.472;13.448;2023-04-25T08:55:37;9.40;99.90
18741;DHT22;9499;52.472;13.448;2023-04-25T08:58:07;9.40;1.00
18741;DHT22;9499;52.472;13.448;2023-04-25T09:00:33;9.30;1.00
18741;DHT22;9499;52.472;13.448;2023-04-25T09:03:00;9.30;99.90
18741;DHT22;9499;52.472;13.448;2023-04-25T09:05:29;9.40;99.90
18741;DHT22;9499;52.472;13.448;2023-04-25T09:07:56;9.40;1.00
18741;DHT22;9499;52.472;13.448;2023-04-25T09:10:23;9.40;1.00
18741;DHT22;9499;52.472;13.448;2023-04-25T09:13:02;9.40;1.00
18741;DHT22;9499;52.472;13.448;2023-04-25T09:15:30;9.50;1.00
18741;DHT22;9499;52.472;13.448;2023-04-25T09:17:57;9.60;99.90
18741;DHT22;9499;52.472;13.448;2023-04-25T09:20:24;9.60;1.00
18741;DHT22;9499;52.472;13.448;2023-04-25T09:23:02;9.80;99.90
18741;DHT22;9499;52.472;13.448;2023-04-25T09:25:34;9.90;1.00
18741;DHT22;9499;52.472;13.448;2023-04-25T09:28:04;10.00;99.90
18741;DHT22;9499;52.472;13.448;2023-04-25T09:30:32;10.10;99.80
18741;DHT22;9499;52.472;13.448;2023-04-25T09:33:04;10.20;25.50
18741;DHT22;9499;52.472;13.448;2023-04-25T09:35:35;10.30;24.30
18741;DHT22;9499;52.472;13.448;2023-04-25T09:38:12;10.50;1.00
18741;DHT22;9499;52.472;13.448;2023-04-25T09:40:40;10.50;1.00
18741;DHT22;9499;52.472;13.448;2023-04-25T09:43:09;10.50;1.00
18741;DHT22;9499;52.472;13.448;2023-04-25T09:45:41;10.50;1.00
18741;DHT22;9499;52.472;13.448;2023-04-25T09:48:11;10.60;1.00
18741;DHT22;9499;52.472;13.448;2023-04-25T09:50:38;10.70;1.00
18741;DHT22;9499;52.472;13.448;2023-04-25T09:53:05;10.60;1.00
18741;DHT22;9499;52.472;13.448;2023-04-25T09:55:34;10.50;1.00
18741;DHT22;9499;52.472;13.448;2023-04-25T09:58:04;10.50;1.00
18741;DHT22;9499;52.472;13.448;2023-04-25T10:00:32;10.50;1.00
18741;DHT22;9499;52.472;13.448;2023-04-25T10:03:01;10.50;1.00
18741;DHT22;9499;52.472;13.448;2023-04-25T10:05:30;10.50;1.00
18741;DHT22;9499;52.472;13.448;2023-04-25T10:07:58;10.60;1.00
18741;DHT22;9499;52.472;13.448;2023-04-25T10:10:24;10.60;1.00
18741;DHT22;9499;52.472;13.448;2023-04-25T10:12:54;10.70;1.00
18741;DHT22;9499;52.472;13.448;2023-04-25T10:15:21;10.90;1.00
18741;DHT22;9499;52.472;13.448;2023-04-25T10:17:49;11.00;1.00
18741;DHT22;9499;52.472;13.448;2023-04-25T10:20:15;11.00;99.90
18741;DHT22;9499;52.472;13.448;2023-04-25T10:22:45;10.90;99.90
18741;DHT22;9499;52.472;13.448;2023-04-25T10:25:13;10.90;99.90
18741;DHT22;9499;52.472;13.448;2023-04-25T10:27:40;10.90;99.90
18741;DHT22;9499;52.472;13.448;2023-04-25T10:30:10;10.80;99.90
18741;DHT22;9499;52.472;13.448;2023-04-25T10:32:41;10.90;99.90
18741;DHT22;9499;52.472;13.448;2023-04-25T10:35:13;10.80;99.90
18741;DHT22;9499;52.472;13.448;2023-04-25T10:38:04;10.70;99.90
18741;DHT22;9499;52.472;13.448;2023-04-25T10:40:32;10.60;99.90
18741;DHT22;9499;52.472;13.448;2023-04-25T10:43:33;10.60;99.90
18741;DHT22;9499;52.472;13.448;2023-04-25T10:46:01;10.60;99.90
18741;DHT22;9499;52.472;13.448;2023-04-25T10:48:30;10.60;99.90
18741;DHT22;9499;52.472;13.448;2023-04-25T10:51:09;10.60;99.90
18741;DHT22;9499;52.472;13.448;2023-04-25T10:53:35;10.50;99.90
18741;DHT22;9499;52.472;13.448;2023-04-25T10:56:09;10.50;99.90
18741;DHT22;9499;52.472;13.448;2023-04-25T10:58:41;10.50;99.90
18741;DHT22;9499;52.472;13.448;2023-04-25T11:01:09;10.50;99.90
18741;DHT22;9499;52.472;13.448;2023-04-25T11:03:39;10.50;99.90
18741;DHT22;9499;52.472;13.448;2023-04-25T11:06:12;10.50;99.90
18741;DHT22;9499;52.472;13.448;2023-04-25T11:08:48;10.50;99.90
18741;DHT22;9499;52.472;13.448;2023-04-25T11:11:15;10.50;99.90
18741;DHT22;9499;52.472;13.448;2023-04-25T11:13:42;10.60;99.90
18741;DHT22;9499;52.472;13.448;2023-04-25T11:16:10;10.60;99.90
18741;DHT22;9499;52.472;13.448;2023-04-25T11:18:36;10.70;99.90
18741;DHT22;9499;52.472;13.448;2023-04-25T11:21:04;10.60;99.90
18741;DHT22;9499;52.472;13.448;2023-04-25T11:23:30;10.60;99.90
18741;DHT22;9499;52.472;13.448;2023-04-25T11:25:57;10.50;99.90
18741;DHT22;9499;52.472;13.448;2023-04-25T11:28:26;10.50;99.90
18741;DHT22;9499;52.472;13.448;2023-04-25T11:30:52;10.50;99.90
18741;DHT22;9499;52.472;13.448;2023-04-25T11:33:24;10.40;99.90
18741;DHT22;9499;52.472;13.448;2023-04-25T11:35:53;10.30;99.90
18741;DHT22;9499;52.472;13.448;2023-04-25T11:38:21;10.30;99.90
18741;DHT22;9499;52.472;13.448;2023-04-25T11:40:50;10.20;99.90
18741;DHT22;9499;52.472;13.448;2023-04-25T11:43:17;10.00;99.90
18741;DHT22;9499;52.472;13.448;2023-04-25T11:45:46;9.90;99.90
18741;DHT22;9499;52.472;13.448;2023-04-25T11:48:13;9.90;99.90
18741;DHT22;9499;52.472;13.448;2023-04-25T11:50:41;10.00;99.90
18741;DHT22;9499;52.472;13.448;2023-04-25T11:53:07;10.00;99.90
18741;DHT22;9499;52.472;13.448;2023-04-25T11:55:34;10.00;71.70
18741;DHT22;9499;52.472;13.448;2023-04-25T11:58:01;10.00;28.10
18741;DHT22;9499;52.472;13.448;2023-04-25T12:00:29;10.00;1.00
18741;DHT22;9499;52.472;13.448;2023-04-25T12:02:57;10.00;1.00
18741;DHT22;9499;52.472;13.448;2023-04-25T12:05:25;10.10;1.00
18741;DHT22;9499;52.472;13.448;2023-04-25T12:07:54;10.10;1.00
18741;DHT22;9499;52.472;13.448;2023-04-25T12:10:21;10.10;1.00
18741;DHT22;9499;52.472;13.448;2023-04-25T12:12:48;10.10;1.00
18741;DHT22;9499;52.472;13.448;2023-04-25T12:15:16;10.10;1.00
18741;DHT22;9499;52.472;13.448;2023-04-25T12:17:45;10.10;1.00
18741;DHT22;9499;52.472;13.448;2023-04-25T12:20:13;10.20;8.30
18741;DHT22;9499;52.472;13.448;2023-04-25T12:22:41;10.20;27.70
18741;DHT22;9499;52.472;13.448;2023-04-25T12:25:11;10.20;61.70
18741;DHT22;9499;52.472;13.448;2023-04-25T12:27:38;10.30;65.10
18741;DHT22;9499;52.472;13.448;2023-04-25T12:30:08;10.40;76.60
18741;DHT22;9499;52.472;13.448;2023-04-25T12:32:37;10.50;40.00
18741;DHT22;9499;52.472;13.448;2023-04-25T12:35:04;10.60;16.10
18741;DHT22;9499;52.472;13.448;2023-04-25T12:37:31;10.70;1.00
18741;DHT22;9499;52.472;13.448;2023-04-25T12:39:58;10.70;1.00
18741;DHT22;9499;52.472;13.448;2023-04-25T12:42:26;10.90;1.00
18741;DHT22;9499;52.472;13.448;2023-04-25T12:44:52;10.90;1.00
18741;DHT22;9499;52.472;13.448;2023-04-25T12:47:19;11.00;1.00
18741;DHT22;9499;52.472;13.448;2023-04-25T12:49:46;11.10;1.00
18741;DHT22;9499;52.472;13.448;2023-04-25T12:52:12;11.20;1.00
18741;DHT22;9499;52.472;13.448;2023-04-25T12:54:39;11.30;1.00
18741;DHT22;9499;52.472;13.448;2023-04-25T12:57:05;11.10;1.00
18741;DHT22;9499;52.472;13.448;2023-04-25T12:59:33;10.80;1.00
18741;DHT22;9499;52.472;13.448;2023-04-25T13:02:00;10.70;1.00
18741;DHT22;9499;52.472;13.448;2023-04-25T13:04:26;10.60;1.00
18741;DHT22;9499;52.472;13.448;2023-04-25T13:06:53;10.50;1.00
18741;DHT22;9499;52.472;13.448;2023-04-25T13:09:19;10.50;1.00
18741;DHT22;9499;52.472;13.448;2023-04-25T13:11:45;10.60;1.00
18741;DHT22;9499;52.472;13.448;2023-04-25T13:14:12;10.60;1.00
18741;DHT22;9499;52.472;13.448;2023-04-25T13:16:40;10.70;1.00
18741;DHT22;9499;52.472;13.448;2023-04-25T13:19:06;10.90;1.00
18741;DHT22;9499;52.472;13.448;2023-04-25T13:21:36;10.90;1.00
18741;DHT22;9499;52.472;13.448;2023-04-25T13:24:03;11.00;1.00
18741;DHT22;9499;52.472;13.448;2023-04-25T13:26:29;11.30;1.00
18741;DHT22;9499;52.472;13.448;2023-04-25T13:28:56;11.70;1.00
18741;DHT22;9499;52.472;13.448;2023-04-25T13:31:23;11.90;1.00
18741;DHT22;9499;52.472;13.448;2023-04-25T13:33:51;11.90;1.00
18741;DHT22;9499;52.472;13.448;2023-04-25T13:36:17;11.70;1.00
18741;DHT22;9499;52.472;13.448;2023-04-25T13:38:44;11.50;1.00
18741;DHT22;9499;52.472;13.448;2023-04-25T13:41:12;11.60;1.00
18741;DHT22;9499;52.472;13.448;2023-04-25T13:43:43;11.50;1.00
18741;DHT22;9499;52.472;13.448;2023-04-25T13:46:10;11.20;1.00
18741;DHT22;9499;52.472;13.448;2023-04-25T13:48:38;11.00;1.00
18741;DHT22;9499;52.472;13.448;2023-04-25T13:51:06;10.90;1.00
18741;DHT22;9499;52.472;13.448;2023-04-25T13:53:32;10.90;1.00
18741;DHT22;9499;52.472;13.448;2023-04-25T13:55:59;10.90;1.00
18741;DHT22;9499;52.472;13.448;2023-04-25T13:58:25;11.00;1.00
18741;DHT22;9499;52.472;13.448;2023-04-25T14:00:52;11.10;1.00
18741;DHT22;9499;52.472;13.448;2023-04-25T14:03:19;11.20;1.00
18741;DHT22;9499;52.472;13.448;2023-04-25T14:05:45;11.20;1.00
18741;DHT22;9499;52.472;13.448;2023-04-25T14:08:13;11.20;1.00
18741;DHT22;9499;52.472;13.448;2023-04-25T14:10:40;11.10;1.00
18741;DHT22;9499;52.472;13.448;2023-04-25T14:13:06;10.80;1.00
18741;DHT22;9499;52.472;13.448;2023-04-25T14:15:33;10.60;1.00
18741;DHT22;9499;52.472;13.448;2023-04-25T14:18:00;10.50;1.00
18741;DHT22;9499;52.472;13.448;2023-04-25T14:20:27;10.50;1.00
18741;DHT22;9499;52.472;13.448;2023-04-25T14:22:54;10.40;1.00
18741;DHT22;9499;52.472;13.448;2023-04-25T14:25:22;10.40;1.00
18741;DHT22;9499;52.472;13.448;2023-04-25T14:27:49;10.40;1.00
18741;DHT22;9499;52.472;13.448;2023-04-25T14:30:16;10.30;8.80
18741;DHT22;9499;52.472;13.448;2023-04-25T14:32:43;10.30;8.30
18741;DHT22;9499;52.472;13.448;2023-04-25T14:35:10;10.20;1.00
18741;DHT22;9499;52.472;13.448;2023-04-25T14:37:37;10.10;1.00
18741;DHT22;9499;52.472;13.448;2023-04-25T14:40:04;10.10;1.00
18741;DHT22;9499;52.472;13.448;2023-04-25T14:42:35;10.00;1.00
18741;DHT22;9499;52.472;13.448;2023-04-25T14:45:02;10.00;1.00
18741;DHT22;9499;52.472;13.448;2023-04-25T14:47:28;10.10;1.00
18741;DHT22;9499;52.472;13.448;2023-04-25T14:49:55;10.20;1.00
18741;DHT22;9499;52.472;13.448;2023-04-25T14:52:22;10.30;1.00
18741;DHT22;9499;52.472;13.448;2023-04-25T14:54:49;10.30;1.00
18741;DHT22;9499;52.472;13.448;2023-04-25T14:57:16;10.50;11.00
18741;DHT22;9499;52.472;13.448;2023-04-25T14:59:44;10.50;9.10
18741;DHT22;9499;52.472;13.448;2023-04-25T15:02:11;10.40;14.70
18741;DHT22;9499;52.472;13.448;2023-04-25T15:04:38;10.30;43.30
18741;DHT22;9499;52.472;13.448;2023-04-25T15:07:05;10.20;67.10
18741;DHT22;9499;52.472;13.448;2023-04-25T15:09:32;10.20;99.90
18741;DHT22;9499;52.472;13.448;2023-04-25T15:11:58;10.20;99.90
18741;DHT22;9499;52.472;13.448;2023-04-25T15:14:24;10.00;99.90
18741;DHT22;9499;52.472;13.448;2023-04-25T15:16:52;10.00;99.90
18741;DHT22;9499;52.472;13.448;2023-04-25T15:19:20;10.00;99.90
18741;DHT22;9499;52.472;13.448;2023-04-25T15:21:46;9.90;99.90
18741;DHT22;9499;52.472;13.448;2023-04-25T15:24:13;9.90;99.90
18741;DHT22;9499;52.472;13.448;2023-04-25T15:26:40;9.90;99.90
18741;DHT22;9499;52.472;13.448;2023-04-25T15:29:07;9.90;99.90
18741;DHT22;9499;52.472;13.448;2023-04-25T15:31:33;9.90;99.90
18741;DHT22;9499;52.472;13.448;2023-04-25T15:34:01;10.00;99.90
18741;DHT22;9499;52.472;13.448;2023-04-25T15:36:27;10.20;99.90
18741;DHT22;9499;52.472;13.448;2023-04-25T15:38:54;10.30;99.90
18741;DHT22;9499;52.472;13.448;2023-04-25T15:41:21;10.30;99.90
18741;DHT22;9499;52.472;13.448;2023-04-25T15:43:47;10.40;99.90
18741;DHT22;9499;52.472;13.448;2023-04-25T15:46:14;10.30;99.90
18741;DHT22;9499;52.472;13.448;2023-04-25T15:48:40;10.30;99.90
18741;DHT22;9499;52.472;13.448;2023-04-25T15:51:08;10.30;99.90